Time;durP1;ratioP1;P1;durP2;ratioP2;P2;SDS_P1;SDS_P2;PMS_P1;PMS_P2;Temp;Humidity;BMP_temperature;BMP_pressure;BME280_temperature;BME280_humidity;BME280_pressure;Samples;Min_cycle;Max_cycle;Signal;HPM_P1;HPM_P2
2021/09/24 00:00:53;;;;;;;;;;;;;;;14.27;100.00;98583.27;1680027;83;20154;-87
2021/09/24 00:03:20;;;;;;;;;;;;;;;14.22;100.00;98592.95;1672746;85;20197;-87
2021/09/24 00:05:46;;;;;;;;;;;;;;;14.18;100.00;98604.00;1683594;83;20147;-87
2021/09/24 00:08:11;;;;;;;;;;;;;;;14.22;100.00;98609.68;1676817;85;21090;-87
2021/09/24 00:10:37;;;;;;;;;;;;;;;14.19;98.24;98637.98;1657871;84;20139;-88
2021/09/24 00:13:02;;;;;;;;;;;;;;;14.10;89.62;98628.67;1682504;83;20240;-87
2021/09/24 00:15:28;;;;;;;;;;;;;;;13.89;84.45;98629.34;1685492;85;20171;-88
2021/09/24 00:17:54;;;;;;;;;;;;;;;13.73;79.32;98695.65;1679459;84;20243;-90
2021/09/24 00:20:20;;;;;;;;;;;;;;;13.52;77.96;98672.13;1663591;84;21973;-88
2021/09/24 00:22:46;;;;;;;;;;;;;;;13.49;77.30;98664.59;1675318;85;20126;-88
2021/09/24 00:25:12;;;;;;;;;;;;;;;13.42;78.09;98695.09;1678341;85;20216;-88
2021/09/24 00:27:37;;;;;;;;;;;;;;;13.25;78.53;98687.59;1679332;84;20267;-87
2021/09/24 00:30:04;;;;;;;;;;;;;;;13.25;79.08;98658.93;1676205;84;20151;-88
2021/09/24 00:32:30;;;;;;;;;;;;;;;13.16;79.62;98679.58;1679213;84;21146;-87
2021/09/24 00:34:55;;;;;;;;;;;;;;;13.07;80.33;98654.33;1681198;84;21119;-88
2021/09/24 00:37:21;;;;;;;;;;;;;;;12.96;80.92;98662.90;1685844;84;20134;-87
2021/09/24 00:39:47;;;;;;;;;;;;;;;12.95;81.54;98655.98;1683031;84;20205;-87
2021/09/24 00:42:12;;;;;;;;;;;;;;;12.79;80.73;98671.31;1684697;83;20142;-86
2021/09/24 00:44:43;;;;;;;;;;;;;;;12.74;81.25;98668.48;1683072;84;21181;-87
2021/09/24 00:47:12;;;;;;;;;;;;;;;12.67;80.92;98679.58;1682963;85;20446;-87
2021/09/24 00:49:37;;;;;;;;;;;;;;;12.65;81.75;98671.84;1683360;84;20217;-87
2021/09/24 00:52:03;;;;;;;;;;;;;;;12.59;82.25;98671.86;1680993;85;20717;-87
2021/09/24 00:54:29;;;;;;;;;;;;;;;12.51;82.95;98671.56;1679002;84;20199;-86
2021/09/24 00:56:57;;;;;;;;;;;;;;;12.43;82.75;98697.73;1681031;84;21104;-86
2021/09/24 00:59:22;;;;;;;;;;;;;;;12.42;82.78;98681.54;1683004;85;20516;-87
2021/09/24 01:01:48;;;;;;;;;;;;;;;12.30;82.93;98692.43;1679168;85;20192;-87
2021/09/24 01:04:13;;;;;;;;;;;;;;;12.27;83.17;98701.58;1683272;84;20265;-88
2021/09/24 01:06:39;;;;;;;;;;;;;;;12.24;82.74;98693.24;1683316;84;20256;-87
2021/09/24 01:09:05;;;;;;;;;;;;;;;12.16;82.67;98706.16;1676513;84;21119;-87
2021/09/24 01:11:30;;;;;;;;;;;;;;;12.20;82.62;98684.90;1685794;84;20167;-86
2021/09/24 01:13:56;;;;;;;;;;;;;;;12.18;82.13;98708.09;1676887;83;20160;-88
2021/09/24 01:16:21;;;;;;;;;;;;;;;12.11;81.87;98690.89;1680686;84;20147;-87
2021/09/24 01:18:47;;;;;;;;;;;;;;;12.09;81.82;98678.86;1683331;85;20218;-86
2021/09/24 01:21:13;;;;;;;;;;;;;;;12.09;81.82;98691.61;1686311;84;22089;-87
2021/09/24 01:23:38;;;;;;;;;;;;;;;12.05;81.10;98696.98;1680527;83;20143;-90
2021/09/24 01:26:09;;;;;;;;;;;;;;;12.02;80.99;98678.87;1675590;85;20720;-86
2021/09/24 01:28:36;;;;;;;;;;;;;;;12.05;81.27;98700.95;1675441;83;20199;-87
2021/09/24 01:31:02;;;;;;;;;;;;;;;12.04;81.44;98676.83;1659406;85;20228;-88
2021/09/24 01:33:31;;;;;;;;;;;;;;;12.03;81.30;98705.64;1686552;84;21092;-88
2021/09/24 01:35:58;;;;;;;;;;;;;;;12.04;81.64;98694.02;1674076;84;20236;-87
2021/09/24 01:38:25;;;;;;;;;;;;;;;12.01;81.78;98678.58;1677002;83;20561;-90
2021/09/24 01:40:51;;;;;;;;;;;;;;;11.99;81.83;98689.85;1677950;83;20147;-89
2021/09/24 01:43:19;;;;;;;;;;;;;;;11.97;81.75;98693.22;1684719;84;20138;-89
2021/09/24 01:45:47;;;;;;;;;;;;;;;12.00;81.62;98699.43;1679182;84;20213;-88
2021/09/24 01:48:13;;;;;;;;;;;;;;;11.94;81.74;98705.52;1680091;84;20152;-88
2021/09/24 01:50:39;;;;;;;;;;;;;;;12.00;81.84;98712.66;1686515;85;20167;-89
2021/09/24 01:53:06;;;;;;;;;;;;;;;11.92;81.83;98699.59;1680993;85;20283;-89
2021/09/24 01:55:32;;;;;;;;;;;;;;;11.92;82.22;98710.18;1680575;85;20118;-89
2021/09/24 01:57:57;;;;;;;;;;;;;;;11.93;82.27;98699.91;1679899;85;21982;-88
2021/09/24 02:00:26;;;;;;;;;;;;;;;11.85;83.18;98695.11;1685629;83;20146;-89
2021/09/24 02:02:52;;;;;;;;;;;;;;;11.92;83.54;98718.11;1686449;84;20167;-89
2021/09/24 02:05:17;;;;;;;;;;;;;;;11.90;84.17;98711.70;1677125;84;20413;-89
2021/09/24 02:07:43;;;;;;;;;;;;;;;11.91;85.29;98716.47;1681756;85;20279;-88
2021/09/24 02:10:10;;;;;;;;;;;;;;;11.94;86.31;98702.88;1678978;85;22131;-88
2021/09/24 02:12:35;;;;;;;;;;;;;;;11.96;87.07;98726.80;1684921;85;20282;-89
2021/09/24 02:15:01;;;;;;;;;;;;;;;11.97;87.78;98703.80;1686969;84;20179;-88
2021/09/24 02:17:27;;;;;;;;;;;;;;;12.02;87.83;98705.33;1659941;84;20122;-90
2021/09/24 02:19:53;;;;;;;;;;;;;;;12.02;87.85;98723.84;1656360;85;20145;-89
2021/09/24 02:22:19;;;;;;;;;;;;;;;12.05;87.82;98701.47;1694971;84;21816;-88
2021/09/24 02:24:44;;;;;;;;;;;;;;;12.06;87.29;98725.09;1670768;83;20197;-88
2021/09/24 02:27:10;;;;;;;;;;;;;;;12.08;87.15;98704.52;1694569;83;20165;-89
2021/09/24 02:29:35;;;;;;;;;;;;;;;12.08;86.76;98708.48;1695500;83;20558;-85
2021/09/24 02:32:01;;;;;;;;;;;;;;;12.07;86.46;98721.41;1689131;83;20135;-86
2021/09/24 02:34:29;;;;;;;;;;;;;;;12.08;86.38;98703.72;1692989;84;21104;-86
2021/09/24 02:36:57;;;;;;;;;;;;;;;12.08;86.13;98754.80;1690030;83;20708;-85
2021/09/24 02:39:23;;;;;;;;;;;;;;;12.09;86.35;98692.93;1693027;84;20118;-87
2021/09/24 02:41:48;;;;;;;;;;;;;;;11.99;87.21;98730.86;1691764;83;20147;-85
2021/09/24 02:44:14;;;;;;;;;;;;;;;11.94;87.57;98738.08;1692068;83;20178;-88
2021/09/24 02:46:40;;;;;;;;;;;;;;;12.02;87.53;98713.27;1695228;83;21139;-86
2021/09/24 02:49:05;;;;;;;;;;;;;;;11.94;87.79;98716.11;1691710;83;20261;-85
2021/09/24 02:51:32;;;;;;;;;;;;;;;11.94;88.09;98721.39;1688352;84;20134;-86
2021/09/24 02:54:00;;;;;;;;;;;;;;;11.88;87.65;98750.74;1641457;86;20161;-91
2021/09/24 02:56:26;;;;;;;;;;;;;;;11.91;87.74;98720.44;1696692;84;20183;-88
2021/09/24 02:58:51;;;;;;;;;;;;;;;11.91;87.84;98748.22;1695652;84;21026;-85
2021/09/24 03:01:18;;;;;;;;;;;;;;;11.87;87.83;98758.39;1696587;83;20253;-87
2021/09/24 03:03:46;;;;;;;;;;;;;;;11.83;87.70;98771.17;1687996;84;20654;-84
2021/09/24 03:06:14;;;;;;;;;;;;;;;11.85;87.98;98742.72;1691825;84;20166;-87
2021/09/24 03:08:41;;;;;;;;;;;;;;;11.78;88.58;98802.70;1693009;84;20142;-86
2021/09/24 03:11:10;;;;;;;;;;;;;;;11.79;89.18;98759.38;1669582;84;22039;-91
2021/09/24 03:13:38;;;;;;;;;;;;;;;11.73;89.91;98848.77;1695129;84;20201;-84
2021/09/24 03:16:05;;;;;;;;;;;;;;;11.67;90.83;98778.95;1692603;84;20171;-88
2021/09/24 03:18:32;;;;;;;;;;;;;;;11.62;91.66;98796.41;1692318;84;20163;-90
2021/09/24 03:21:00;;;;;;;;;;;;;;;11.56;92.99;98778.20;1676022;84;20157;-85
2021/09/24 03:23:26;;;;;;;;;;;;;;;11.54;93.55;98774.11;1695884;84;21166;-87
2021/09/24 03:25:52;;;;;;;;;;;;;;;11.47;94.32;98814.55;1693915;84;20659;-85
2021/09/24 03:28:18;;;;;;;;;;;;;;;11.52;94.18;98803.39;1694056;84;20150;-86
2021/09/24 03:30:47;;;;;;;;;;;;;;;11.49;94.38;98797.98;1667871;84;20248;-85
2021/09/24 03:33:12;;;;;;;;;;;;;;;11.46;94.47;98802.33;1690976;84;20206;-86
2021/09/24 03:35:40;;;;;;;;;;;;;;;11.49;94.39;98786.08;1692418;84;21451;-86
2021/09/24 03:38:06;;;;;;;;;;;;;;;11.46;94.32;98811.59;1688576;83;20923;-85
2021/09/24 03:40:33;;;;;;;;;;;;;;;11.48;93.90;98821.48;1695024;84;20146;-85
2021/09/24 03:43:04;;;;;;;;;;;;;;;11.49;94.07;98788.73;1692232;84;20148;-85
2021/09/24 03:45:29;;;;;;;;;;;;;;;11.50;94.03;98787.72;1690737;84;20182;-85
2021/09/24 03:47:58;;;;;;;;;;;;;;;11.50;94.05;98816.80;1694122;84;20940;-84
2021/09/24 03:50:24;;;;;;;;;;;;;;;11.49;93.75;98800.62;1695217;83;20143;-85
2021/09/24 03:52:52;;;;;;;;;;;;;;;11.52;93.52;98810.52;1693809;83;20194;-87
2021/09/24 03:55:23;;;;;;;;;;;;;;;11.56;93.57;98809.09;1695773;84;20171;-85
2021/09/24 03:57:48;;;;;;;;;;;;;;;11.57;93.34;98810.22;1662493;86;20155;-86
2021/09/24 04:00:15;;;;;;;;;;;;;;;11.57;93.04;98831.89;1683036;83;20386;-86
2021/09/24 04:02:42;;;;;;;;;;;;;;;11.56;93.26;98830.24;1685606;84;20548;-86
2021/09/24 04:05:09;;;;;;;;;;;;;;;11.55;93.31;98829.95;1657670;83;20281;-86
2021/09/24 04:07:36;;;;;;;;;;;;;;;11.56;93.52;98842.14;1683030;83;20457;-86
2021/09/24 04:10:06;;;;;;;;;;;;;;;11.55;93.82;98863.00;1687340;83;20188;-87
2021/09/24 04:12:31;;;;;;;;;;;;;;;11.52;94.33;98840.41;1644686;85;21894;-86
2021/09/24 04:15:05;;;;;;;;;;;;;;;11.47;94.79;98835.70;1692121;84;20570;-86
2021/09/24 04:17:31;;;;;;;;;;;;;;;11.51;95.04;98822.90;1660414;84;20136;-86
2021/09/24 04:19:56;;;;;;;;;;;;;;;11.40;95.38;98830.86;1691238;84;20202;-87
2021/09/24 04:22:22;;;;;;;;;;;;;;;11.45;95.52;98839.53;1692783;84;20492;-87
2021/09/24 04:24:49;;;;;;;;;;;;;;;11.41;95.39;98856.30;1653247;84;21278;-85
2021/09/24 04:27:15;;;;;;;;;;;;;;;11.46;95.20;98844.63;1660386;84;20171;-86
2021/09/24 04:29:41;;;;;;;;;;;;;;;11.50;94.58;98860.94;1667094;85;20278;-86
2021/09/24 04:32:09;;;;;;;;;;;;;;;11.46;94.74;98849.91;1670259;85;20169;-85
2021/09/24 04:34:35;;;;;;;;;;;;;;;11.50;94.30;98860.42;1689862;84;20148;-86
2021/09/24 04:37:02;;;;;;;;;;;;;;;11.55;94.24;98852.42;1691186;83;21091;-86
2021/09/24 04:39:29;;;;;;;;;;;;;;;11.54;94.19;98875.90;1692705;84;20103;-86
2021/09/24 04:41:54;;;;;;;;;;;;;;;11.58;94.11;98863.42;1691767;83;20439;-87
2021/09/24 04:44:24;;;;;;;;;;;;;;;11.55;94.08;98880.19;1693855;83;20195;-88
2021/09/24 04:46:50;;;;;;;;;;;;;;;11.62;93.97;98879.70;1689389;83;20381;-88
2021/09/24 04:49:18;;;;;;;;;;;;;;;11.58;93.94;98912.85;1694350;83;21225;-86
2021/09/24 04:51:44;;;;;;;;;;;;;;;11.61;94.00;98879.41;1675272;84;20541;-88
2021/09/24 04:54:10;;;;;;;;;;;;;;;11.60;94.13;98875.13;1668359;84;20415;-83
2021/09/24 04:56:37;;;;;;;;;;;;;;;11.63;94.00;98903.83;1690774;83;20174;-84
2021/09/24 04:59:02;;;;;;;;;;;;;;;11.62;93.87;98882.34;1696645;83;20168;-84
2021/09/24 05:01:31;;;;;;;;;;;;;;;11.59;94.37;98907.37;1696825;83;21219;-84
2021/09/24 05:03:57;;;;;;;;;;;;;;;11.60;94.39;98907.66;1697630;83;20364;-85
2021/09/24 05:06:22;;;;;;;;;;;;;;;11.60;94.38;98906.85;1692522;83;20206;-84
2021/09/24 05:08:53;;;;;;;;;;;;;;;11.60;94.40;98947.84;1695876;83;20455;-85
2021/09/24 05:11:20;;;;;;;;;;;;;;;11.62;94.22;98910.11;1693586;83;20234;-83
2021/09/24 05:13:46;;;;;;;;;;;;;;;11.63;94.44;98918.36;1697942;83;21277;-84
2021/09/24 05:16:12;;;;;;;;;;;;;;;11.59;94.26;98916.63;1692094;83;20320;-85
2021/09/24 05:18:38;;;;;;;;;;;;;;;11.64;94.44;98923.46;1688329;84;20298;-84
2021/09/24 05:21:05;;;;;;;;;;;;;;;11.66;94.59;98931.20;1688063;84;20217;-89
2021/09/24 05:23:32;;;;;;;;;;;;;;;11.63;94.75;98935.55;1682942;84;20174;-85
2021/09/24 05:25:59;;;;;;;;;;;;;;;11.66;94.28;98930.69;1683999;84;22123;-87
2021/09/24 05:28:26;;;;;;;;;;;;;;;11.64;94.76;98929.27;1692442;83;20150;-88
2021/09/24 05:30:52;;;;;;;;;;;;;;;11.67;94.74;98929.69;1689519;83;20236;-89
2021/09/24 05:33:18;;;;;;;;;;;;;;;11.74;94.54;98936.84;1691080;84;20178;-90
2021/09/24 05:35:44;;;;;;;;;;;;;;;11.73;94.47;98926.78;1687437;83;20745;-87
2021/09/24 05:38:11;;;;;;;;;;;;;;;11.75;94.43;98924.75;1689302;83;21752;-90
2021/09/24 05:40:38;;;;;;;;;;;;;;;11.82;94.56;98935.36;1681846;83;20491;-88
2021/09/24 05:43:04;;;;;;;;;;;;;;;11.76;94.92;98939.63;1690596;83;20559;-88
2021/09/24 05:45:29;;;;;;;;;;;;;;;11.80;94.83;98951.43;1666467;84;20160;-89
2021/09/24 05:47:57;;;;;;;;;;;;;;;11.77;95.24;99010.00;1686960;83;20182;-90
2021/09/24 05:50:23;;;;;;;;;;;;;;;11.80;95.34;98938.20;1689437;83;20156;-90
2021/09/24 05:52:53;;;;;;;;;;;;;;;11.85;95.26;98976.81;1683874;83;20263;-93
2021/09/24 05:55:22;;;;;;;;;;;;;;;11.78;95.90;98982.55;1658456;84;20218;-88
2021/09/24 05:57:54;;;;;;;;;;;;;;;11.85;95.92;98945.07;1687448;83;20186;-92
2021/09/24 06:00:20;;;;;;;;;;;;;;;11.84;96.17;98971.20;1688129;83;20162;-91
2021/09/24 06:02:49;;;;;;;;;;;;;;;11.80;96.66;98951.43;1679604;83;21107;-91
2021/09/24 06:05:16;;;;;;;;;;;;;;;11.91;96.34;98941.33;1678153;83;20184;-89
2021/09/24 06:07:44;;;;;;;;;;;;;;;11.85;96.18;98970.20;1662060;84;20237;-85
2021/09/24 06:10:11;;;;;;;;;;;;;;;11.94;95.80;98966.10;1687855;83;20996;-87
2021/09/24 06:12:39;;;;;;;;;;;;;;;11.91;96.26;98987.63;1640021;85;20171;-90
2021/09/24 06:15:06;;;;;;;;;;;;;;;11.91;95.91;98963.81;1668773;85;21085;-90
2021/09/24 06:17:37;;;;;;;;;;;;;;;11.89;96.11;98981.72;1675074;84;20554;-87
2021/09/24 06:20:04;;;;;;;;;;;;;;;11.86;96.13;98976.30;1675782;84;20151;-86
2021/09/24 06:22:31;;;;;;;;;;;;;;;11.90;95.93;99009.30;1701129;83;20218;-91
2021/09/24 06:24:56;;;;;;;;;;;;;;;12.00;95.65;98983.84;1701232;83;20234;-89
2021/09/24 06:27:23;;;;;;;;;;;;;;;11.90;95.70;98979.36;1703045;83;21947;-86
2021/09/24 06:29:50;;;;;;;;;;;;;;;11.98;95.09;99011.82;1619209;85;20167;-92
2021/09/24 06:32:18;;;;;;;;;;;;;;;11.93;95.54;98997.53;1682191;83;21061;-86
2021/09/24 06:34:45;;;;;;;;;;;;;;;11.96;95.37;98978.63;1679076;83;20186;-86
2021/09/24 06:37:14;;;;;;;;;;;;;;;12.06;95.36;98994.98;1681018;83;20164;-84
2021/09/24 06:39:41;;;;;;;;;;;;;;;12.10;94.83;98998.85;1673954;83;20953;-87
2021/09/24 06:42:08;;;;;;;;;;;;;;;12.11;94.65;98995.20;1651846;85;21158;-90
2021/09/24 06:44:36;;;;;;;;;;;;;;;12.12;94.63;99003.47;1671674;83;20660;-88
2021/09/24 06:47:03;;;;;;;;;;;;;;;12.17;93.92;98994.42;1675653;85;20206;-85
2021/09/24 06:49:29;;;;;;;;;;;;;;;12.15;93.76;98999.59;1674816;83;20174;-89
2021/09/24 06:51:57;;;;;;;;;;;;;;;12.21;93.81;98992.20;1673176;83;21167;-88
2021/09/24 06:54:24;;;;;;;;;;;;;;;12.23;93.68;99009.20;1677281;83;20182;-89
2021/09/24 06:56:52;;;;;;;;;;;;;;;12.32;93.02;99014.66;1674067;83;20188;-91
2021/09/24 06:59:19;;;;;;;;;;;;;;;12.35;92.78;99023.53;1676495;84;20168;-88
2021/09/24 07:01:47;;;;;;;;;;;;;;;12.45;92.74;99055.77;1676922;83;20241;-86
2021/09/24 07:04:20;;;;;;;;;;;;;;;12.46;92.41;99019.03;1676695;83;20929;-87
2021/09/24 07:06:52;;;;;;;;;;;;;;;12.48;91.78;99030.23;1670881;83;20236;-87
2021/09/24 07:09:17;;;;;;;;;;;;;;;12.56;91.53;99023.44;1672380;83;20162;-86
2021/09/24 07:11:48;;;;;;;;;;;;;;;12.51;91.52;99018.44;1655423;84;21269;-88
2021/09/24 07:14:13;;;;;;;;;;;;;;;12.57;91.80;99010.52;1672869;83;20173;-85
2021/09/24 07:16:39;;;;;;;;;;;;;;;12.55;91.79;99035.55;1680268;83;21128;-91
2021/09/24 07:19:05;;;;;;;;;;;;;;;12.59;91.23;99016.94;1671479;84;20635;-87
2021/09/24 07:21:34;;;;;;;;;;;;;;;12.65;90.98;99047.13;1658479;85;20199;-89
2021/09/24 07:24:00;;;;;;;;;;;;;;;12.63;90.80;99038.05;1672207;84;20194;-84
2021/09/24 07:26:27;;;;;;;;;;;;;;;12.71;90.71;99055.61;1661776;84;20713;-84
2021/09/24 07:28:53;;;;;;;;;;;;;;;12.69;90.91;99052.32;1675979;84;21138;-89
2021/09/24 07:31:21;;;;;;;;;;;;;;;12.81;90.25;99050.74;1677276;84;20416;-86
2021/09/24 07:33:49;;;;;;;;;;;;;;;12.73;90.15;99088.01;1652315;85;20243;-93
2021/09/24 07:36:16;;;;;;;;;;;;;;;12.69;90.03;99089.41;1674501;84;20187;-88
2021/09/24 07:38:43;;;;;;;;;;;;;;;12.81;90.26;99066.64;1673326;85;20239;-89
2021/09/24 07:41:09;;;;;;;;;;;;;;;12.81;90.22;99085.19;1667098;84;21085;-90
2021/09/24 07:43:34;;;;;;;;;;;;;;;12.83;90.08;99080.50;1671562;84;20131;-93
2021/09/24 07:46:02;;;;;;;;;;;;;;;12.86;89.83;99076.13;1660887;85;20599;-83
2021/09/24 07:48:27;;;;;;;;;;;;;;;12.99;88.91;99098.40;1656536;85;20174;-87
2021/09/24 07:50:54;;;;;;;;;;;;;;;13.01;88.52;99088.44;1678494;84;20147;-87
2021/09/24 07:53:20;;;;;;;;;;;;;;;12.87;87.98;99110.09;1671856;85;21926;-84
2021/09/24 07:55:46;;;;;;;;;;;;;;;13.02;87.85;99079.45;1660003;85;20164;-85
2021/09/24 07:58:12;;;;;;;;;;;;;;;13.08;87.81;99097.21;1651152;85;20216;-79
2021/09/24 08:00:38;;;;;;;;;;;;;;;13.06;87.61;99089.45;1672660;84;20123;-84
2021/09/24 08:03:04;;;;;;;;;;;;;;;13.11;87.40;99104.77;1668314;84;20814;-86
2021/09/24 08:05:31;;;;;;;;;;;;;;;13.15;86.48;99102.04;1671969;84;21107;-86
2021/09/24 08:07:57;;;;;;;;;;;;;;;13.17;86.02;99086.75;1671673;85;20159;-88
2021/09/24 08:10:24;;;;;;;;;;;;;;;13.24;85.82;99088.92;1674695;84;20141;-82
2021/09/24 08:12:54;;;;;;;;;;;;;;;13.26;85.47;99101.45;1652665;85;20221;-84
2021/09/24 08:15:19;;;;;;;;;;;;;;;13.33;84.70;99131.16;1669102;84;20603;-91
2021/09/24 08:17:45;;;;;;;;;;;;;;;13.36;84.56;99090.52;1672236;84;21099;-85
2021/09/24 08:20:15;;;;;;;;;;;;;;;13.45;84.71;99085.83;1675870;85;20156;-85
2021/09/24 08:22:41;;;;;;;;;;;;;;;13.52;84.47;99101.26;1672143;84;20225;-87
2021/09/24 08:25:10;;;;;;;;;;;;;;;13.57;84.03;99084.73;1675458;85;20570;-93
2021/09/24 08:27:35;;;;;;;;;;;;;;;13.62;83.72;99095.03;1677076;84;20219;-90
2021/09/24 08:30:07;;;;;;;;;;;;;;;13.63;83.67;99115.25;1669268;84;21956;-89
2021/09/24 08:32:36;;;;;;;;;;;;;;;13.70;83.41;99114.44;1679449;85;20298;-85
2021/09/24 08:35:00;;;;;;;;;;;;;;;13.78;82.74;99134.14;1664087;84;20177;-84
2021/09/24 08:37:26;;;;;;;;;;;;;;;13.83;82.70;99110.48;1669634;84;20126;-86
2021/09/24 08:39:52;;;;;;;;;;;;;;;13.97;81.86;99096.20;1670669;84;20228;-85
2021/09/24 08:42:20;;;;;;;;;;;;;;;13.88;81.26;99104.05;1671566;84;21141;-84
2021/09/24 08:44:49;;;;;;;;;;;;;;;13.92;81.30;99120.38;1672373;84;20227;-84
2021/09/24 08:47:24;;;;;;;;;;;;;;;14.01;81.39;99104.55;1668500;85;20672;-85
2021/09/24 08:49:49;;;;;;;;;;;;;;;14.04;81.07;99102.02;1667350;84;20876;-87
2021/09/24 08:52:15;;;;;;;;;;;;;;;13.93;81.69;99121.50;1672134;84;20155;-88
2021/09/24 08:54:40;;;;;;;;;;;;;;;13.96;81.03;99099.05;1672274;84;21043;-87
2021/09/24 08:57:12;;;;;;;;;;;;;;;14.02;81.07;99114.16;1670077;84;20157;-85
2021/09/24 08:59:39;;;;;;;;;;;;;;;14.03;81.35;99114.97;1670627;84;20249;-83
2021/09/24 09:02:07;;;;;;;;;;;;;;;14.03;80.66;99122.94;1672555;84;20242;-88
2021/09/24 09:04:41;;;;;;;;;;;;;;;14.05;79.79;99126.22;1675693;83;20200;-83
2021/09/24 09:07:13;;;;;;;;;;;;;;;14.21;80.39;99147.03;1649700;84;21825;-84
2021/09/24 09:09:43;;;;;;;;;;;;;;;14.25;79.53;99136.32;1671073;85;20179;-85
2021/09/24 09:12:23;;;;;;;;;;;;;;;14.33;79.35;99130.79;1674394;84;20149;-90
2021/09/24 09:15:01;;;;;;;;;;;;;;;14.44;79.27;99135.19;1668959;85;20203;-85
2021/09/24 09:17:29;;;;;;;;;;;;;;;14.38;78.28;99142.64;1679678;84;20231;-84
2021/09/24 09:20:16;;;;;;;;;;;;;;;14.29;77.66;99176.06;1674537;85;21179;-86
2021/09/24 09:22:45;;;;;;;;;;;;;;;14.39;77.82;99154.88;1670956;85;20291;-83
2021/09/24 09:25:27;;;;;;;;;;;;;;;14.34;77.52;99168.28;1653379;85;20393;-82
2021/09/24 09:27:54;;;;;;;;;;;;;;;14.30;77.18;99168.38;1671117;85;20118;-84
2021/09/24 09:30:22;;;;;;;;;;;;;;;14.39;76.98;99115.05;1646242;84;20220;-83
2021/09/24 09:33:03;;;;;;;;;;;;;;;14.57;76.96;99148.95;1673268;84;21169;-81
2021/09/24 09:35:29;;;;;;;;;;;;;;;14.54;76.16;99130.25;1662853;84;20522;-83
2021/09/24 09:37:58;;;;;;;;;;;;;;;14.61;75.33;99134.27;1674534;84;20210;-85
2021/09/24 09:40:23;;;;;;;;;;;;;;;14.64;75.78;99144.48;1696981;83;20178;-80
2021/09/24 09:42:50;;;;;;;;;;;;;;;14.61;74.43;99156.85;1696404;83;20363;-81
2021/09/24 09:45:17;;;;;;;;;;;;;;;14.60;74.51;99175.11;1662990;84;21175;-82
2021/09/24 09:47:44;;;;;;;;;;;;;;;14.56;75.01;99174.72;1674635;84;20123;-81
2021/09/24 09:50:14;;;;;;;;;;;;;;;14.60;75.53;99173.28;1669547;83;20268;-81
2021/09/24 09:52:55;;;;;;;;;;;;;;;14.59;75.25;99182.27;1661819;84;21163;-81
2021/09/24 09:55:21;;;;;;;;;;;;;;;14.62;74.84;99172.59;1664216;84;20290;-81
2021/09/24 09:57:55;;;;;;;;;;;;;;;14.71;75.21;99209.89;1690727;84;21261;-82
2021/09/24 10:00:26;;;;;;;;;;;;;;;14.69;74.95;99170.72;1663155;84;20160;-82
2021/09/24 10:03:09;;;;;;;;;;;;;;;14.62;74.99;99173.92;1691175;83;20258;-84
2021/09/24 10:05:37;;;;;;;;;;;;;;;14.68;74.76;99184.21;1642839;84;38055;-80
2021/09/24 10:08:26;;;;;;;;;;;;;;;14.68;73.88;99183.72;1669770;84;20185;-78
2021/09/24 10:11:00;;;;;;;;;;;;;;;14.71;72.99;99188.62;1691603;83;21075;-81
2021/09/24 10:13:28;;;;;;;;;;;;;;;14.83;72.26;99154.76;1677568;84;20167;-83
2021/09/24 10:15:54;;;;;;;;;;;;;;;14.87;72.15;99171.94;1686348;83;21058;-87
2021/09/24 10:18:20;;;;;;;;;;;;;;;14.91;72.66;99175.79;1679973;83;20120;-83
2021/09/24 10:20:46;;;;;;;;;;;;;;;14.90;72.34;99220.70;1704598;82;20156;-82
2021/09/24 10:23:12;;;;;;;;;;;;;;;14.96;71.79;99173.34;1703972;82;21205;-82
2021/09/24 10:25:37;;;;;;;;;;;;;;;15.16;71.76;99183.08;1710618;83;20136;-82
2021/09/24 10:28:06;;;;;;;;;;;;;;;15.27;71.02;99198.38;1655626;84;20213;-82
2021/09/24 10:30:34;;;;;;;;;;;;;;;15.26;71.08;99188.79;1674894;85;20206;-82
2021/09/24 10:33:01;;;;;;;;;;;;;;;15.25;70.97;99216.40;1703128;82;20204;-89
2021/09/24 10:35:52;;;;;;;;;;;;;;;15.17;71.20;99202.02;1704242;83;21311;-83
2021/09/24 10:38:21;;;;;;;;;;;;;;;15.29;71.36;99195.02;1704396;83;20174;-78
2021/09/24 10:41:05;;;;;;;;;;;;;;;15.33;69.96;99211.36;1704297;83;20160;-80
2021/09/24 10:43:47;;;;;;;;;;;;;;;15.29;69.64;99200.34;1684024;83;20464;-81
2021/09/24 10:46:29;;;;;;;;;;;;;;;15.28;68.36;99204.02;1702418;83;20173;-83
2021/09/24 10:49:23;;;;;;;;;;;;;;;15.40;68.82;99190.36;1700889;84;21158;-81
2021/09/24 10:52:08;;;;;;;;;;;;;;;15.44;69.10;99196.90;1701079;84;20215;-82
2021/09/24 10:54:35;;;;;;;;;;;;;;;15.43;68.60;99223.19;1695131;83;20193;-81
2021/09/24 10:57:10;;;;;;;;;;;;;;;15.42;68.65;99250.81;1699458;83;20184;-80
2021/09/24 10:59:35;;;;;;;;;;;;;;;15.41;68.26;99203.97;1701330;83;20225;-88
2021/09/24 11:02:21;;;;;;;;;;;;;;;15.43;67.14;99200.58;1693457;83;21072;-80
2021/09/24 11:04:48;;;;;;;;;;;;;;;15.45;66.41;99260.23;1676051;84;20265;-89
2021/09/24 11:07:29;;;;;;;;;;;;;;;15.40;66.29;99234.25;1675412;84;20156;-83
2021/09/24 11:09:54;;;;;;;;;;;;;;;15.38;66.72;99220.36;1672376;83;20175;-89
2021/09/24 11:12:20;;;;;;;;;;;;;;;15.31;67.00;99271.42;1673203;84;20115;-82
2021/09/24 11:14:46;;;;;;;;;;;;;;;15.36;67.39;99203.77;1683927;84;21106;-82
2021/09/24 11:17:36;;;;;;;;;;;;;;;15.39;68.39;99213.19;1676133;84;20154;-85
2021/09/24 11:20:08;;;;;;;;;;;;;;;15.24;68.13;99242.69;1668996;85;20242;-86
2021/09/24 11:22:40;;;;;;;;;;;;;;;15.19;68.33;99218.56;1674060;83;20230;-85
2021/09/24 11:25:10;;;;;;;;;;;;;;;15.26;68.92;99215.38;1675748;84;20258;-85
2021/09/24 11:27:45;;;;;;;;;;;;;;;15.19;69.45;99221.23;1680654;84;21032;-86
2021/09/24 11:30:14;;;;;;;;;;;;;;;15.25;68.89;99227.04;1678390;83;20170;-84
2021/09/24 11:32:47;;;;;;;;;;;;;;;15.26;69.19;99232.67;1630410;86;20160;-88
2021/09/24 11:35:20;;;;;;;;;;;;;;;15.20;69.52;99248.14;1629406;86;20241;-85
2021/09/24 11:37:48;;;;;;;;;;;;;;;15.21;69.61;99267.88;1622833;86;20221;-85
2021/09/24 11:40:20;;;;;;;;;;;;;;;15.29;69.73;99226.94;1627528;86;21341;-85
2021/09/24 11:42:52;;;;;;;;;;;;;;;15.34;69.96;99223.13;1628279;86;20259;-86
2021/09/24 11:45:24;;;;;;;;;;;;;;;15.42;70.70;99242.02;1625004;86;20181;-88
2021/09/24 11:48:09;;;;;;;;;;;;;;;15.44;71.59;99215.52;1615972;86;20163;-86
2021/09/24 11:50:34;;;;;;;;;;;;;;;15.47;71.82;99211.60;1631206;86;20176;-85
2021/09/24 11:53:04;;;;;;;;;;;;;;;15.46;71.65;99231.77;1604063;87;21174;-84
2021/09/24 11:55:37;;;;;;;;;;;;;;;15.30;71.63;99280.94;1633338;86;20197;-83
2021/09/24 11:58:08;;;;;;;;;;;;;;;15.38;71.50;99236.31;1635594;86;20219;-84
2021/09/24 12:00:43;;;;;;;;;;;;;;;15.43;71.56;99225.86;1634057;86;20221;-87
2021/09/24 12:03:31;;;;;;;;;;;;;;;15.43;71.25;99276.41;1634289;86;20187;-88
2021/09/24 12:06:02;;;;;;;;;;;;;;;15.51;71.18;99241.29;1645503;85;21165;-82
2021/09/24 12:08:42;;;;;;;;;;;;;;;15.59;71.03;99271.13;1634918;86;20201;-83
2021/09/24 12:11:12;;;;;;;;;;;;;;;15.64;70.68;99266.50;1636593;86;20537;-81
2021/09/24 12:13:52;;;;;;;;;;;;;;;15.77;69.42;99239.86;1626392;86;20600;-84
2021/09/24 12:16:27;;;;;;;;;;;;;;;15.77;68.30;99241.72;1593993;86;20197;-84
2021/09/24 12:19:06;;;;;;;;;;;;;;;15.74;67.98;99244.77;1648485;86;21244;-87
2021/09/24 12:21:48;;;;;;;;;;;;;;;15.68;67.12;99270.38;1627681;86;20145;-84
2021/09/24 12:24:38;;;;;;;;;;;;;;;15.81;66.71;99274.05;1626089;86;20466;-85
2021/09/24 12:27:14;;;;;;;;;;;;;;;15.87;67.46;99250.05;1629231;86;20147;-82
2021/09/24 12:29:43;;;;;;;;;;;;;;;15.79;66.98;99299.02;1636507;86;20155;-86
2021/09/24 12:32:11;;;;;;;;;;;;;;;16.00;66.86;99241.16;1599415;87;21432;-87
2021/09/24 12:34:46;;;;;;;;;;;;;;;15.97;66.73;99258.40;1635301;86;20572;-88
2021/09/24 12:37:22;;;;;;;;;;;;;;;16.00;66.22;99284.29;1605487;87;20504;-88
2021/09/24 12:39:56;;;;;;;;;;;;;;;16.04;65.58;99261.02;1630987;85;20520;-85
2021/09/24 12:42:22;;;;;;;;;;;;;;;16.14;66.05;99286.68;1634360;86;20183;-88
2021/09/24 12:44:58;;;;;;;;;;;;;;;16.22;65.64;99258.13;1631768;86;21182;-90
2021/09/24 12:47:33;;;;;;;;;;;;;;;16.26;65.48;99274.80;1637713;86;20160;-86
2021/09/24 12:50:02;;;;;;;;;;;;;;;16.23;64.76;99285.09;1604044;87;20224;-88
2021/09/24 12:52:28;;;;;;;;;;;;;;;16.42;64.36;99292.64;1633910;86;20166;-88